Time;durP1;ratioP1;P1;durP2;ratioP2;P2;SDS_P1;SDS_P2;PMS_P1;PMS_P2;Temp;Humidity;BMP_temperature;BMP_pressure;BME280_temperature;BME280_humidity;BME280_pressure;Samples;Min_cycle;Max_cycle;Signal;HPM_P1;HPM_P2
2023/11/01 00:01:52;;;;;;;;;;;;;;;-144.99;100.00;52586.69;5100844;27;19947;-66
2023/11/01 00:04:20;;;;;;;;;;;;;;;-144.99;100.00;52570.38;5105178;27;19924;-66
2023/11/01 00:06:46;;;;;;;;;;;;;;;-144.99;100.00;52570.38;5108585;27;20030;-64
2023/11/01 00:09:13;;;;;;;;;;;;;;;-144.99;100.00;52586.69;5109640;27;19927;-64
2023/11/01 00:11:40;;;;;;;;;;;;;;;-144.99;100.00;52603.00;5106589;27;20062;-64
2023/11/01 00:14:06;;;;;;;;;;;;;;;-144.99;100.00;52590.78;5098644;28;20018;-65
2023/11/01 00:16:33;;;;;;;;;;;;;;;-144.99;100.00;52582.63;5104535;28;19977;-65
2023/11/01 00:19:00;;;;;;;;;;;;;;;-144.99;100.00;52570.38;5096594;28;19927;-66
2023/11/01 00:21:27;;;;;;;;;;;;;;;-144.99;100.00;52586.69;5106959;28;19931;-66
2023/11/01 00:23:54;;;;;;;;;;;;;;;-144.99;100.00;52584.66;5101023;28;19986;-66
2023/11/01 00:26:20;;;;;;;;;;;;;;;-144.99;100.00;52578.53;5109127;28;19936;-70
2023/11/01 00:28:47;;;;;;;;;;;;;;;-144.99;100.00;52594.84;5101406;28;19927;-70
2023/11/01 00:31:13;;;;;;;;;;;;;;;-144.99;100.00;52611.16;5101132;28;19955;-70
2023/11/01 00:33:40;;;;;;;;;;;;;;;-144.99;100.00;52558.16;5113635;28;19934;-74
2023/11/01 00:36:07;;;;;;;;;;;;;;;-144.99;100.00;52586.69;5097644;28;20242;-74
2023/11/01 00:38:35;;;;;;;;;;;;;;;-144.99;100.00;52586.69;5109205;28;20000;-74
2023/11/01 00:41:02;;;;;;;;;;;;;;;-144.99;100.00;52566.31;5109860;28;20014;-74
2023/11/01 00:43:29;;;;;;;;;;;;;;;-144.99;100.00;52566.31;5110849;27;19927;-73
2023/11/01 00:45:55;;;;;;;;;;;;;;;-144.99;100.00;52554.09;5112982;28;19959;-73
2023/11/01 00:48:22;;;;;;;;;;;;;;;-144.99;100.00;52570.38;5097613;28;20153;-74
2023/11/01 00:50:48;;;;;;;;;;;;;;;-144.99;100.00;52590.78;5092496;28;20055;-74
2023/11/01 00:53:15;;;;;;;;;;;;;;;-144.99;100.00;52578.53;5105251;28;20056;-74
2023/11/01 00:55:43;;;;;;;;;;;;;;;-144.99;100.00;52578.53;5100325;28;20389;-74
2023/11/01 00:58:09;;;;;;;;;;;;;;;-144.99;100.00;52568.34;5103785;28;19928;-74
2023/11/01 01:00:36;;;;;;;;;;;;;;;-144.99;100.00;52584.66;5099458;28;20036;-74
2023/11/01 01:03:03;;;;;;;;;;;;;;;-144.99;100.00;52592.81;5096518;28;19924;-74
2023/11/01 01:05:29;;;;;;;;;;;;;;;-144.99;100.00;52578.53;5104465;28;20403;-74
2023/11/01 01:07:56;;;;;;;;;;;;;;;-144.99;100.00;52586.69;5099196;27;19940;-66
2023/11/01 01:10:23;;;;;;;;;;;;;;;-144.99;100.00;52568.34;5115963;27;19998;-65
2023/11/01 01:12:50;;;;;;;;;;;;;;;-144.99;100.00;52586.69;4755893;27;10000123;-64
2023/11/01 01:15:17;;;;;;;;;;;;;;;-144.99;100.00;52607.09;5111263;27;20347;-65
2023/11/01 01:17:43;;;;;;;;;;;;;;;-144.99;100.00;52598.94;5116711;27;19967;-63
2023/11/01 01:20:11;;;;;;;;;;;;;;;-144.99;100.00;52594.84;5112153;27;19932;-64
2023/11/01 01:22:37;;;;;;;;;;;;;;;-144.99;100.00;52590.78;5095019;28;19970;-72
2023/11/01 01:25:04;;;;;;;;;;;;;;;-144.99;100.00;52582.63;5107883;28;20018;-71
2023/11/01 01:27:31;;;;;;;;;;;;;;;-144.99;100.00;52603.00;5106495;28;19924;-65
2023/11/01 01:29:58;;;;;;;;;;;;;;;-144.99;100.00;52578.53;5112295;27;20004;-67
2023/11/01 01:32:26;;;;;;;;;;;;;;;-144.99;100.00;52590.78;5120145;27;19932;-68
2023/11/01 01:34:52;;;;;;;;;;;;;;;-144.99;100.00;52594.84;5107943;27;20034;-68
2023/11/01 01:37:19;;;;;;;;;;;;;;;-144.99;100.00;52586.69;5114968;27;19927;-68
2023/11/01 01:39:45;;;;;;;;;;;;;;;-144.99;100.00;52586.69;5117908;27;19953;-68
2023/11/01 01:42:13;;;;;;;;;;;;;;;-144.99;100.00;52584.66;5117939;27;19955;-69
2023/11/01 01:44:39;;;;;;;;;;;;;;;-144.99;100.00;52562.25;5108148;27;20015;-69
2023/11/01 01:47:08;;;;;;;;;;;;;;;-144.99;100.00;52586.69;5108180;28;20179;-68
2023/11/01 01:49:34;;;;;;;;;;;;;;;-144.99;100.00;52623.38;5109993;27;19971;-70
2023/11/01 01:52:01;;;;;;;;;;;;;;;-144.99;100.00;52545.94;5102014;27;20014;-70
2023/11/01 01:54:28;;;;;;;;;;;;;;;-144.99;100.00;52611.16;5118038;27;19959;-68
2023/11/01 01:56:54;;;;;;;;;;;;;;;-144.99;100.00;52611.16;5112813;22;19963;-71
2023/11/01 01:59:21;;;;;;;;;;;;;;;-144.99;100.00;52566.31;5094817;28;19980;-65
2023/11/01 02:01:48;;;;;;;;;;;;;;;-144.99;100.00;52570.38;5094652;28;20151;-64
2023/11/01 02:04:16;;;;;;;;;;;;;;;-144.99;100.00;52558.16;5097614;28;20014;-64
2023/11/01 02:06:43;;;;;;;;;;;;;;;-144.99;100.00;52590.78;5093872;28;20635;-61
2023/11/01 02:09:15;;;;;;;;;;;;;;;-144.99;100.00;52552.03;5092881;28;20001;-67
2023/11/01 02:11:41;;;;;;;;;;;;;;;-144.99;100.00;52558.16;5089311;28;19945;-69
2023/11/01 02:14:08;;;;;;;;;;;;;;;-144.99;100.00;52570.38;5092655;28;19924;-70
2023/11/01 02:16:34;;;;;;;;;;;;;;;-144.99;100.00;52590.78;5096709;28;19977;-69
2023/11/01 02:19:01;;;;;;;;;;;;;;;-144.99;100.00;52582.63;5089204;28;19928;-69
2023/11/01 02:21:29;;;;;;;;;;;;;;;-144.99;100.00;52562.25;5085035;28;19931;-71
2023/11/01 02:23:57;;;;;;;;;;;;;;;-144.99;100.00;52611.16;5093569;28;19955;-71
2023/11/01 02:26:25;;;;;;;;;;;;;;;-144.99;100.00;52566.31;5090916;28;19967;-71
2023/11/01 02:28:51;;;;;;;;;;;;;;;-144.99;100.00;52594.84;5092041;28;19985;-71
2023/11/01 02:31:18;;;;;;;;;;;;;;;-144.99;100.00;52574.47;5084793;28;20031;-73
2023/11/01 02:33:44;;;;;;;;;;;;;;;-144.99;100.00;52574.47;5085568;28;19928;-74
2023/11/01 02:36:11;;;;;;;;;;;;;;;-144.99;100.00;52537.78;5080327;28;19978;-71
2023/11/01 02:38:38;;;;;;;;;;;;;;;-144.99;100.00;52570.38;5088183;28;20320;-71
2023/11/01 02:41:06;;;;;;;;;;;;;;;-144.99;100.00;52582.63;5090929;28;19924;-71
2023/11/01 02:43:32;;;;;;;;;;;;;;;-144.99;100.00;52550.00;5079015;28;20019;-71
2023/11/01 02:45:59;;;;;;;;;;;;;;;-144.99;100.00;52594.84;5089713;28;19924;-72
2023/11/01 02:48:26;;;;;;;;;;;;;;;-144.99;100.00;52594.84;5090680;28;19984;-71
2023/11/01 02:50:53;;;;;;;;;;;;;;;-144.99;100.00;52607.09;5091540;28;19924;-71
2023/11/01 02:53:19;;;;;;;;;;;;;;;-144.99;100.00;52525.56;5088106;28;20011;-71
2023/11/01 02:55:46;;;;;;;;;;;;;;;-144.99;100.00;52562.25;5095173;28;19979;-71
2023/11/01 02:58:14;;;;;;;;;;;;;;;-144.99;100.00;52594.84;5105100;28;19989;-76
2023/11/01 03:00:40;;;;;;;;;;;;;;;-144.99;100.00;52568.34;5111176;28;19912;-76
2023/11/01 03:03:07;;;;;;;;;;;;;;;-144.99;100.00;52562.25;5103968;28;20419;-76
2023/11/01 03:05:33;;;;;;;;;;;;;;;-144.99;100.00;52603.00;5085671;28;19924;-77
2023/11/01 03:08:00;;;;;;;;;;;;;;;-144.99;100.00;52564.28;5102143;28;19928;-79
2023/11/01 03:10:26;;;;;;;;;;;;;;;-144.99;100.00;52554.09;5112983;28;19946;-81
2023/11/01 03:12:53;;;;;;;;;;;;;;;-144.99;100.00;52574.47;5112268;28;19997;-80
2023/11/01 03:15:21;;;;;;;;;;;;;;;-144.99;100.00;52586.69;5103637;28;19958;-76
2023/11/01 03:17:47;;;;;;;;;;;;;;;-144.99;100.00;52525.56;5102953;28;19932;-77
2023/11/01 03:20:14;;;;;;;;;;;;;;;-144.99;100.00;52578.53;5104318;28;19935;-78
2023/11/01 03:22:40;;;;;;;;;;;;;;;-144.99;100.00;52600.97;5115560;28;20387;-78
2023/11/01 03:25:08;;;;;;;;;;;;;;;-144.99;100.00;52562.25;5108055;28;19924;-75
2023/11/01 03:27:34;;;;;;;;;;;;;;;-144.99;100.00;52578.53;5106417;28;20386;-77
2023/11/01 03:30:01;;;;;;;;;;;;;;;-144.99;100.00;52588.75;5107808;28;20127;-71
2023/11/01 03:32:29;;;;;;;;;;;;;;;-144.99;100.00;52590.78;5094474;28;20404;-67
2023/11/01 03:34:56;;;;;;;;;;;;;;;-144.99;100.00;52566.31;5083132;28;19935;-66
2023/11/01 03:37:22;;;;;;;;;;;;;;;-144.99;100.00;52594.84;5102000;28;19962;-66
2023/11/01 03:39:49;;;;;;;;;;;;;;;-144.99;100.00;52558.16;5095003;28;19962;-66
2023/11/01 03:42:15;;;;;;;;;;;;;;;-144.99;100.00;52554.09;5097002;28;20344;-65
2023/11/01 03:44:42;;;;;;;;;;;;;;;-144.99;100.00;52582.63;5081526;28;19986;-66
2023/11/01 03:47:08;;;;;;;;;;;;;;;-144.99;100.00;52558.16;5097216;28;19971;-66
2023/11/01 03:49:36;;;;;;;;;;;;;;;-144.99;100.00;52578.53;5098880;28;19924;-65
2023/11/01 03:52:03;;;;;;;;;;;;;;;-144.99;100.00;52598.94;5092124;28;19978;-68
2023/11/01 03:54:33;;;;;;;;;;;;;;;-144.99;100.00;52572.44;5099457;28;19997;-64
2023/11/01 03:56:59;;;;;;;;;;;;;;;-144.99;100.00;52578.53;5089364;28;19930;-65
2023/11/01 03:59:25;;;;;;;;;;;;;;;-144.99;100.00;52598.94;5088799;28;20116;-64
2023/11/01 04:01:52;;;;;;;;;;;;;;;-144.99;100.00;52629.50;5090768;28;19924;-64
2023/11/01 04:04:18;;;;;;;;;;;;;;;-144.99;100.00;52586.69;5107521;28;19967;-64
2023/11/01 04:06:46;;;;;;;;;;;;;;;-144.99;100.00;52570.38;5101918;28;19976;-65
2023/11/01 04:09:13;;;;;;;;;;;;;;;-144.99;100.00;52586.69;5099565;28;20533;-64
2023/11/01 04:11:41;;;;;;;;;;;;;;;-144.99;100.00;52576.50;5102749;28;19923;-65
2023/11/01 04:14:07;;;;;;;;;;;;;;;-144.99;100.00;52574.47;5079936;28;20365;-65
2023/11/01 04:16:34;;;;;;;;;;;;;;;-144.99;100.00;52588.75;5086616;28;19959;-68
2023/11/01 04:19:01;;;;;;;;;;;;;;;-144.99;100.00;52611.16;5089958;28;19967;-68
2023/11/01 04:21:27;;;;;;;;;;;;;;;-144.99;100.00;52586.69;5083571;28;19924;-63
2023/11/01 04:23:55;;;;;;;;;;;;;;;-144.99;100.00;52580.59;5089175;28;20263;-65
2023/11/01 04:26:22;;;;;;;;;;;;;;;-144.99;100.00;52598.94;5085574;28;20058;-66
2023/11/01 04:28:48;;;;;;;;;;;;;;;-144.99;100.00;52643.78;5084366;28;20015;-65
2023/11/01 04:31:15;;;;;;;;;;;;;;;-144.99;100.00;52570.38;5085222;28;19928;-65
2023/11/01 04:33:43;;;;;;;;;;;;;;;-144.99;100.00;52582.63;5086755;28;19932;-64
2023/11/01 04:36:10;;;;;;;;;;;;;;;-144.99;100.00;52558.16;5093808;28;19924;-65
2023/11/01 04:38:37;;;;;;;;;;;;;;;-144.99;100.00;52600.97;5091398;28;20382;-65
2023/11/01 04:41:09;;;;;;;;;;;;;;;-144.99;100.00;52576.50;5089462;28;19965;-65
2023/11/01 04:43:35;;;;;;;;;;;;;;;-144.99;100.00;52603.00;5086334;28;19935;-64
2023/11/01 04:46:02;;;;;;;;;;;;;;;-144.99;100.00;52537.78;5097763;28;19928;-69
2023/11/01 04:48:29;;;;;;;;;;;;;;;-144.99;100.00;52580.59;5084044;28;19974;-64
2023/11/01 04:50:55;;;;;;;;;;;;;;;-144.99;100.00;52570.38;5089453;28;19931;-65
2023/11/01 04:53:22;;;;;;;;;;;;;;;-144.99;100.00;52576.50;5096384;28;19928;-64
2023/11/01 04:55:50;;;;;;;;;;;;;;;-144.99;100.00;52558.16;5086721;28;20410;-64
2023/11/01 04:58:18;;;;;;;;;;;;;;;-144.99;100.00;52556.13;5080874;28;19929;-63
2023/11/01 05:00:45;;;;;;;;;;;;;;;-144.99;100.00;52574.47;5080881;28;19935;-64
2023/11/01 05:03:11;;;;;;;;;;;;;;;-144.99;100.00;52578.53;5096151;28;19931;-70
2023/11/01 05:05:38;;;;;;;;;;;;;;;-144.99;100.00;52607.09;5091302;28;19955;-68
2023/11/01 05:08:04;;;;;;;;;;;;;;;-144.99;100.00;52574.47;5089116;28;20006;-68
2023/11/01 05:10:31;;;;;;;;;;;;;;;-144.99;100.00;52584.66;5095847;28;20388;-70
2023/11/01 05:12:58;;;;;;;;;;;;;;;-144.99;100.00;52611.16;5094367;28;19958;-70
2023/11/01 05:15:26;;;;;;;;;;;;;;;-144.99;100.00;52566.31;5088356;28;19999;-69
2023/11/01 05:17:53;;;;;;;;;;;;;;;-144.99;100.00;52586.69;5088709;28;19930;-70
2023/11/01 05:20:19;;;;;;;;;;;;;;;-144.99;100.00;52590.78;5078533;28;19936;-69
2023/11/01 05:22:46;;;;;;;;;;;;;;;-144.99;100.00;52598.94;5093340;28;19963;-74
2023/11/01 05:25:14;;;;;;;;;;;;;;;-144.99;100.00;52623.38;5079824;28;19990;-69
2023/11/01 05:27:41;;;;;;;;;;;;;;;-144.99;100.00;52529.63;5093817;28;19928;-81
2023/11/01 05:30:08;;;;;;;;;;;;;;;-144.99;100.00;52566.31;5111169;28;19924;-82
2023/11/01 05:32:36;;;;;;;;;;;;;;;-144.99;100.00;52594.84;5102913;28;20068;-81
2023/11/01 05:35:03;;;;;;;;;;;;;;;-144.99;100.00;52576.50;5092911;28;19974;-82
2023/11/01 05:37:30;;;;;;;;;;;;;;;-144.99;100.00;52578.53;5101344;28;20409;-82
2023/11/01 05:39:56;;;;;;;;;;;;;;;-144.99;100.00;52590.78;5099120;28;19950;-83
2023/11/01 05:42:23;;;;;;;;;;;;;;;-144.99;100.00;52566.31;5098589;28;20005;-84
2023/11/01 05:44:50;;;;;;;;;;;;;;;-144.99;100.00;52582.63;5109708;28;19935;-83
2023/11/01 05:47:16;;;;;;;;;;;;;;;-144.99;100.00;52635.63;5112664;28;19939;-82
2023/11/01 05:49:44;;;;;;;;;;;;;;;-144.99;100.00;52570.38;5106295;28;20004;-84
2023/11/01 05:52:11;;;;;;;;;;;;;;;-144.99;100.00;52603.00;5097737;28;20155;-83
2023/11/01 05:54:38;;;;;;;;;;;;;;;-144.99;100.00;52615.25;5103217;28;19932;-78
2023/11/01 05:57:04;;;;;;;;;;;;;;;-144.99;100.00;52586.69;5093610;28;19924;-80
2023/11/01 05:59:31;;;;;;;;;;;;;;;-144.99;100.00;52574.47;5089380;28;20350;-66
2023/11/01 06:01:57;;;;;;;;;;;;;;;-144.99;100.00;52611.16;5088241;28;20022;-64
2023/11/01 06:04:23;;;;;;;;;;;;;;;-144.99;100.00;52570.38;5088478;28;20459;-65
2023/11/01 06:06:51;;;;;;;;;;;;;;;-144.99;100.00;52586.69;5090180;28;19939;-64
2023/11/01 06:09:19;;;;;;;;;;;;;;;-144.99;100.00;52554.09;5086917;28;20416;-64
2023/11/01 06:11:46;;;;;;;;;;;;;;;-144.99;100.00;52562.25;5090485;28;20385;-64
2023/11/01 06:14:12;;;;;;;;;;;;;;;-144.99;100.00;52558.16;5078648;28;19963;-66
2023/11/01 06:16:56;;;;;;;;;;;;;;;-144.99;100.00;52607.09;4906128;28;9999663;-66
2023/11/01 06:19:22;;;;;;;;;;;;;;;-144.99;100.00;52594.84;5076080;28;19931;-66
2023/11/01 06:21:49;;;;;;;;;;;;;;;-144.99;100.00;52586.69;5082160;28;20031;-66
2023/11/01 06:24:17;;;;;;;;;;;;;;;-144.99;100.00;52594.84;5082184;28;20045;-66
2023/11/01 06:26:44;;;;;;;;;;;;;;;-144.99;100.00;52578.53;5074927;28;20017;-66
2023/11/01 06:29:11;;;;;;;;;;;;;;;-144.99;100.00;52558.16;5094661;28;19988;-67
2023/11/01 06:31:38;;;;;;;;;;;;;;;-144.99;100.00;52609.13;5081200;28;19950;-68
2023/11/01 06:34:04;;;;;;;;;;;;;;;-144.99;100.00;52576.50;5090512;28;20203;-66
2023/11/01 06:36:31;;;;;;;;;;;;;;;-144.99;100.00;52603.00;5073475;28;19928;-67
2023/11/01 06:38:57;;;;;;;;;;;;;;;-144.99;100.00;52541.84;5086683;28;19974;-68
2023/11/01 06:41:25;;;;;;;;;;;;;;;-144.99;100.00;52584.66;5084939;28;20015;-67
2023/11/01 06:43:52;;;;;;;;;;;;;;;-144.99;100.00;52582.63;5086091;28;19928;-67
2023/11/01 06:46:18;;;;;;;;;;;;;;;-144.99;100.00;52562.25;5093848;28;20062;-67
2023/11/01 06:48:44;;;;;;;;;;;;;;;-144.99;100.00;52525.56;5086190;28;19966;-66
2023/11/01 06:51:11;;;;;;;;;;;;;;;-144.99;100.00;52578.53;5087166;28;20027;-67
2023/11/01 06:53:37;;;;;;;;;;;;;;;-144.99;100.00;52558.16;5091072;28;20256;-67
2023/11/01 06:56:04;;;;;;;;;;;;;;;-144.99;100.00;52584.66;5071114;28;20130;-67
2023/11/01 06:58:32;;;;;;;;;;;;;;;-144.99;100.00;52590.78;5085506;28;20026;-68
2023/11/01 07:00:59;;;;;;;;;;;;;;;-144.99;100.00;52566.31;5080269;28;19928;-67
2023/11/01 07:03:25;;;;;;;;;;;;;;;-144.99;100.00;52550.00;5087565;28;20019;-67
2023/11/01 07:05:51;;;;;;;;;;;;;;;-144.99;100.00;52582.63;5077295;28;19928;-67
2023/11/01 07:08:18;;;;;;;;;;;;;;;-144.99;100.00;52574.47;5093759;28;20130;-67
2023/11/01 07:10:44;;;;;;;;;;;;;;;-144.99;100.00;52558.16;5092873;28;19928;-67
2023/11/01 07:13:11;;;;;;;;;;;;;;;-144.99;100.00;52600.97;5091644;28;20062;-67
2023/11/01 07:15:39;;;;;;;;;;;;;;;-144.99;100.00;52570.38;5089197;28;20373;-66
2023/11/01 07:18:07;;;;;;;;;;;;;;;-144.99;100.00;52566.31;5101409;28;19998;-66
2023/11/01 07:20:34;;;;;;;;;;;;;;;-144.99;100.00;52533.69;5090651;28;19928;-66
2023/11/01 07:23:01;;;;;;;;;;;;;;;-144.99;100.00;52566.31;5089070;28;19928;-67
2023/11/01 07:25:27;;;;;;;;;;;;;;;-144.99;100.00;52558.16;5097149;28;19968;-66
2023/11/01 07:27:54;;;;;;;;;;;;;;;-144.99;100.00;52566.31;5096866;28;20450;-67
2023/11/01 07:30:21;;;;;;;;;;;;;;;-144.99;100.00;52590.78;5071198;28;19988;-66
2023/11/01 07:32:49;;;;;;;;;;;;;;;-144.99;100.00;52590.78;5085582;28;20357;-67
2023/11/01 07:35:15;;;;;;;;;;;;;;;-144.99;100.00;52605.03;5089112;28;19967;-67
2023/11/01 07:37:42;;;;;;;;;;;;;;;-144.99;100.00;52574.47;5100397;28;19990;-66
2023/11/01 07:40:09;;;;;;;;;;;;;;;-144.99;100.00;52578.53;5074922;28;19972;-66
2023/11/01 07:42:38;;;;;;;;;;;;;;;-144.99;100.00;52543.91;5088610;28;19929;-66
2023/11/01 07:45:05;;;;;;;;;;;;;;;-144.99;100.00;52580.59;5082099;28;19946;-67
2023/11/01 07:47:32;;;;;;;;;;;;;;;-144.99;100.00;52566.31;5081432;28;19928;-66
2023/11/01 07:50:00;;;;;;;;;;;;;;;-144.99;100.00;52566.31;5090354;28;20035;-68
2023/11/01 07:52:26;;;;;;;;;;;;;;;-144.99;100.00;52592.81;5077158;28;19960;-68
2023/11/01 07:54:52;;;;;;;;;;;;;;;-144.99;100.00;52568.34;5084732;28;19932;-66
2023/11/01 07:57:20;;;;;;;;;;;;;;;-144.99;100.00;52541.84;5084887;28;20477;-67
2023/11/01 07:59:46;;;;;;;;;;;;;;;-144.99;100.00;52562.25;5082886;28;20359;-66
2023/11/01 08:02:13;;;;;;;;;;;;;;;-144.99;100.00;52550.00;5076285;28;19924;-67
2023/11/01 08:04:39;;;;;;;;;;;;;;;-144.99;100.00;52578.53;5093642;28;20028;-66
2023/11/01 08:07:07;;;;;;;;;;;;;;;-144.99;100.00;52554.09;5087711;28;19927;-66
2023/11/01 08:09:33;;;;;;;;;;;;;;;-144.99;100.00;52566.31;5092799;28;20070;-67
2023/11/01 08:12:03;;;;;;;;;;;;;;;-144.99;100.00;52582.63;5083235;28;20727;-66
2023/11/01 08:14:29;;;;;;;;;;;;;;;-144.99;100.00;52572.44;5079205;28;19931;-66
2023/11/01 08:16:56;;;;;;;;;;;;;;;-144.99;100.00;52517.41;5083953;28;20447;-66
2023/11/01 08:19:22;;;;;;;;;;;;;;;-144.99;100.00;52603.00;5074038;28;19928;-66
2023/11/01 08:21:49;;;;;;;;;;;;;;;-144.99;100.00;52574.47;5078106;28;19951;-67
2023/11/01 08:24:16;;;;;;;;;;;;;;;-144.99;100.00;52545.94;5083951;28;19995;-68
2023/11/01 08:26:43;;;;;;;;;;;;;;;-144.99;100.00;52545.94;5091107;28;20029;-67
2023/11/01 08:29:10;;;;;;;;;;;;;;;-144.99;100.00;52517.41;5084431;28;20030;-66
2023/11/01 08:31:36;;;;;;;;;;;;;;;-144.99;100.00;52611.16;5088055;28;20351;-68
2023/11/01 08:34:03;;;;;;;;;;;;;;;-144.99;100.00;52590.78;5079354;28;19928;-66
2023/11/01 08:36:29;;;;;;;;;;;;;;;-144.99;100.00;52590.78;5078728;28;19964;-68
2023/11/01 08:38:56;;;;;;;;;;;;;;;-144.99;100.00;52529.63;5089868;28;20363;-67
2023/11/01 08:41:24;;;;;;;;;;;;;;;-144.99;100.00;52603.00;5085383;28;19928;-67
2023/11/01 08:43:50;;;;;;;;;;;;;;;-144.99;100.00;52527.59;5079722;28;19924;-71
2023/11/01 08:46:17;;;;;;;;;;;;;;;-144.99;100.00;52545.94;5081586;28;20007;-71
2023/11/01 08:48:43;;;;;;;;;;;;;;;-144.99;100.00;52570.38;5092547;28;19989;-70
2023/11/01 08:51:10;;;;;;;;;;;;;;;-144.99;100.00;52533.69;5076908;28;20214;-70
2023/11/01 08:53:37;;;;;;;;;;;;;;;-144.99;100.00;52547.97;5094788;28;19959;-70
2023/11/01 08:56:04;;;;;;;;;;;;;;;-144.99;100.00;52531.66;5092608;28;20430;-70
2023/11/01 08:58:32;;;;;;;;;;;;;;;-144.99;100.00;52570.38;5086253;28;20038;-70
2023/11/01 09:00:59;;;;;;;;;;;;;;;-144.99;100.00;52554.09;5084409;28;20414;-70
2023/11/01 09:03:25;;;;;;;;;;;;;;;-144.99;100.00;52562.25;5082685;28;20018;-71
2023/11/01 09:05:52;;;;;;;;;;;;;;;-144.99;100.00;52533.69;5083169;28;19932;-71
2023/11/01 09:08:19;;;;;;;;;;;;;;;-144.99;100.00;52541.84;5079386;28;19928;-70
2023/11/01 09:10:45;;;;;;;;;;;;;;;-144.99;100.00;52554.09;5091379;28;19979;-71
2023/11/01 09:13:12;;;;;;;;;;;;;;;-144.99;100.00;52554.09;5081018;28;19932;-71
2023/11/01 09:15:39;;;;;;;;;;;;;;;-144.99;100.00;52541.84;5081333;28;19998;-71
2023/11/01 09:18:06;;;;;;;;;;;;;;;-144.99;100.00;52550.00;5079050;28;19928;-70
2023/11/01 09:20:33;;;;;;;;;;;;;;;-144.99;100.00;52554.09;5074293;28;19932;-70
2023/11/01 09:23:00;;;;;;;;;;;;;;;-144.99;100.00;52598.94;5084934;28;19932;-72
2023/11/01 09:25:27;;;;;;;;;;;;;;;-144.99;100.00;52558.16;5085609;28;20337;-71
2023/11/01 09:27:53;;;;;;;;;;;;;;;-144.99;100.00;52570.38;5085495;28;20022;-71
2023/11/01 09:30:20;;;;;;;;;;;;;;;-144.99;100.00;52529.63;5084424;28;20346;-71
2023/11/01 09:32:48;;;;;;;;;;;;;;;-144.99;100.00;52543.91;5068652;28;19935;-71
2023/11/01 09:35:14;;;;;;;;;;;;;;;-144.99;100.00;52521.47;5083377;28;19932;-70
2023/11/01 09:37:41;;;;;;;;;;;;;;;-144.99;100.00;52529.63;5094878;28;20015;-71
2023/11/01 09:40:10;;;;;;;;;;;;;;;-144.99;100.00;52558.16;5078720;28;19928;-71
2023/11/01 09:42:37;;;;;;;;;;;;;;;-144.99;100.00;52547.97;5087407;28;20167;-71
2023/11/01 09:45:07;;;;;;;;;;;;;;;-144.99;100.00;52550.00;5087338;28;19924;-70
2023/11/01 09:47:33;;;;;;;;;;;;;;;-144.99;100.00;52537.78;5089684;28;20024;-71
2023/11/01 09:50:01;;;;;;;;;;;;;;;-144.99;100.00;52511.28;5065655;28;19985;-71
2023/11/01 09:52:30;;;;;;;;;;;;;;;-144.99;100.00;52507.19;5080052;28;19974;-71
2023/11/01 09:54:57;;;;;;;;;;;;;;;-144.99;100.00;52527.59;5084698;28;19929;-70
2023/11/01 09:57:25;;;;;;;;;;;;;;;-144.99;100.00;52529.63;5083980;28;20723;-70
2023/11/01 09:59:53;;;;;;;;;;;;;;;-144.99;100.00;52509.25;5089857;28;20342;-71
2023/11/01 10:02:19;;;;;;;;;;;;;;;-144.99;100.00;52513.31;5091317;28;19925;-70
2023/11/01 10:04:46;;;;;;;;;;;;;;;-144.99;100.00;52470.50;5094603;28;19966;-70
2023/11/01 10:07:14;;;;;;;;;;;;;;;-144.99;100.00;52558.16;5091201;28;20032;-70
2023/11/01 10:09:41;;;;;;;;;;;;;;;-144.99;100.00;52517.41;5088095;28;19964;-70
2023/11/01 10:12:08;;;;;;;;;;;;;;;-144.99;100.00;52529.63;5093154;28;19952;-70
2023/11/01 10:14:34;;;;;;;;;;;;;;;-144.99;100.00;52499.06;5096950;28;19963;-75
2023/11/01 10:17:01;;;;;;;;;;;;;;;-144.99;100.00;52521.47;5088975;28;20420;-71
2023/11/01 10:19:28;;;;;;;;;;;;;;;-144.99;100.00;52509.25;4740226;28;10000318;-71
2023/11/01 10:21:55;;;;;;;;;;;;;;;-144.99;100.00;52509.25;5086531;28;19928;-71
2023/11/01 10:24:25;;;;;;;;;;;;;;;-144.99;100.00;52507.19;5085773;28;19963;-71
2023/11/01 10:26:51;;;;;;;;;;;;;;;-144.99;100.00;52523.50;5085988;28;20420;-72
2023/11/01 10:29:18;;;;;;;;;;;;;;;-144.99;100.00;52476.63;5079305;28;19928;-71
2023/11/01 10:31:51;;;;;;;;;;;;;;;-144.99;100.00;52480.72;5084440;28;19964;-72
2023/11/01 10:34:18;;;;;;;;;;;;;;;-144.99;100.00;52529.63;5085789;28;20011;-72
2023/11/01 10:36:50;;;;;;;;;;;;;;;-144.99;100.00;52484.78;5081251;28;19985;-71
2023/11/01 10:39:17;;;;;;;;;;;;;;;-144.99;100.00;52529.63;5084539;28;20067;-72
2023/11/01 10:41:47;;;;;;;;;;;;;;;-144.99;100.00;52507.19;5095423;28;19928;-73
2023/11/01 10:44:14;;;;;;;;;;;;;;;-144.99;100.00;52517.41;5081761;28;19959;-71
2023/11/01 10:46:41;;;;;;;;;;;;;;;-144.99;100.00;52488.84;5086863;28;20544;-72
2023/11/01 10:49:09;;;;;;;;;;;;;;;-144.99;100.00;52541.84;5082335;28;20342;-72
2023/11/01 10:51:36;;;;;;;;;;;;;;;-144.99;100.00;52533.69;5080534;28;20698;-71
2023/11/01 10:54:03;;;;;;;;;;;;;;;-144.99;100.00;52541.84;5092823;28;19928;-73
2023/11/01 10:56:29;;;;;;;;;;;;;;;-144.99;100.00;52509.25;5083037;28;19976;-72
2023/11/01 10:59:02;;;;;;;;;;;;;;;-144.99;100.00;52505.16;5079452;28;19987;-71
2023/11/01 11:01:32;;;;;;;;;;;;;;;-144.99;100.00;52509.25;5079232;28;20315;-70
2023/11/01 11:04:02;;;;;;;;;;;;;;;-144.99;100.00;52525.56;5086198;28;20394;-71
2023/11/01 11:06:35;;;;;;;;;;;;;;;-144.99;100.00;52503.13;5085383;28;20302;-70
2023/11/01 11:09:22;;;;;;;;;;;;;;;-144.99;100.00;52547.97;5073301;28;19936;-70
2023/11/01 11:12:13;;;;;;;;;;;;;;;-144.99;100.00;52505.16;5084276;28;19985;-70
2023/11/01 11:14:41;;;;;;;;;;;;;;;-144.99;100.00;52505.16;5087806;28;19928;-71
2023/11/01 11:17:08;;;;;;;;;;;;;;;-144.99;100.00;52543.91;5086890;28;19928;-70
2023/11/01 11:19:49;;;;;;;;;;;;;;;-144.99;100.00;52537.78;5093839;28;19932;-71
2023/11/01 11:22:16;;;;;;;;;;;;;;;-144.99;100.00;52488.84;5079165;28;19929;-71
2023/11/01 11:24:46;;;;;;;;;;;;;;;-144.99;100.00;52509.25;5087436;28;20274;-71
2023/11/01 11:27:27;;;;;;;;;;;;;;;-144.99;100.00;52550.00;5073690;28;19935;-71
2023/11/01 11:29:55;;;;;;;;;;;;;;;-144.99;100.00;52488.84;5078573;28;19985;-76
2023/11/01 11:32:22;;;;;;;;;;;;;;;-144.99;100.00;52525.56;5092668;28;19924;-70
2023/11/01 11:34:48;;;;;;;;;;;;;;;-144.99;100.00;52505.16;5080054;28;20015;-72
2023/11/01 11:37:16;;;;;;;;;;;;;;;-144.99;100.00;52513.31;5083034;28;20348;-72
2023/11/01 11:39:53;;;;;;;;;;;;;;;-144.99;100.00;52513.31;5078551;28;19928;-71
2023/11/01 11:42:38;;;;;;;;;;;;;;;-144.99;100.00;52558.16;5083341;28;19928;-73
2023/11/01 11:45:08;;;;;;;;;;;;;;;-144.99;100.00;52554.09;5078522;28;19928;-73
2023/11/01 11:47:34;;;;;;;;;;;;;;;-144.99;100.00;52497.00;5080979;28;19982;-73
2023/11/01 11:50:06;;;;;;;;;;;;;;;-144.99;100.00;52533.69;5082817;28;20439;-73
2023/11/01 11:52:32;;;;;;;;;;;;;;;-144.99;100.00;52497.00;5080482;28;19928;-71
2023/11/01 11:54:58;;;;;;;;;;;;;;;-144.99;100.00;52501.09;5085053;28;19968;-71
2023/11/01 11:57:27;;;;;;;;;;;;;;;-144.99;100.00;52533.69;5099885;28;20006;-73
2023/11/01 12:00:00;;;;;;;;;;;;;;;-144.99;100.00;52517.41;5091843;28;19945;-71
2023/11/01 12:02:28;;;;;;;;;;;;;;;-144.99;100.00;52537.78;5090619;28;20202;-72
2023/11/01 12:04:55;;;;;;;;;;;;;;;-144.99;100.00;52509.25;5086965;28;19928;-73
2023/11/01 12:07:23;;;;;;;;;;;;;;;-144.99;100.00;52537.78;5093619;28;19932;-72
2023/11/01 12:09:50;;;;;;;;;;;;;;;-144.99;100.00;52513.31;5091508;28;19924;-71
2023/11/01 12:12:16;;;;;;;;;;;;;;;-144.99;100.00;52537.78;5078525;28;20376;-74
2023/11/01 12:14:44;;;;;;;;;;;;;;;-144.99;100.00;52525.56;5086144;28;19959;-72
2023/11/01 12:17:11;;;;;;;;;;;;;;;-144.99;100.00;52517.41;5083731;28;20007;-72
2023/11/01 12:19:44;;;;;;;;;;;;;;;-144.99;100.00;52529.63;5081282;28;19936;-73